Time;durP1;ratioP1;P1;durP2;ratioP2;P2;SDS_P1;SDS_P2;PMS_P1;PMS_P2;Temp;Humidity;BMP_temperature;BMP_pressure;BME280_temperature;BME280_humidity;BME280_pressure;Samples;Min_cycle;Max_cycle;Signal;HPM_P1;HPM_P2
2020/12/29 00:01:15;;;;;;;8.40;6.10;;;;;;;5.41;77.59;96114.60;2133636;83;21293;-91
2020/12/29 00:04:16;;;;;;;6.95;5.17;;;;;;;5.41;77.55;96113.30;2133638;83;21284;-91
2020/12/29 00:07:18;;;;;;;7.45;5.33;;;;;;;5.42;77.41;96119.58;2133715;83;21301;-90
2020/12/29 00:10:20;;;;;;;8.93;6.47;;;;;;;5.46;77.24;96112.66;2133624;83;21151;-90
2020/12/29 00:13:22;;;;;;;5.87;4.80;;;;;;;5.47;77.24;96108.55;2133587;83;21151;-90
2020/12/29 00:16:24;;;;;;;8.98;6.53;;;;;;;5.46;77.20;96101.78;2133560;83;21773;-90
2020/12/29 00:19:25;;;;;;;6.53;5.12;;;;;;;5.45;77.34;96108.48;2133682;83;21678;-91
2020/12/29 00:22:27;;;;;;;8.75;5.53;;;;;;;5.42;77.27;96101.41;2133598;83;21312;-91
2020/12/29 00:25:29;;;;;;;5.97;4.70;;;;;;;5.43;77.24;96098.31;2133627;83;21301;-90
2020/12/29 00:28:30;;;;;;;7.95;5.20;;;;;;;5.42;77.17;96090.23;2133591;83;21143;-89
2020/12/29 00:31:32;;;;;;;8.08;6.45;;;;;;;5.41;77.22;96095.94;2133573;83;21617;-89
2020/12/29 00:34:34;;;;;;;6.90;3.92;;;;;;;5.39;77.15;96090.64;2133644;83;21313;-90
2020/12/29 00:37:35;;;;;;;6.45;4.90;;;;;;;5.36;77.15;96095.75;2133659;83;21177;-90
2020/12/29 00:40:37;;;;;;;7.20;5.17;;;;;;;5.31;77.23;96098.20;2133574;83;21289;-90
2020/12/29 00:43:39;;;;;;;8.00;5.72;;;;;;;5.31;77.28;96097.41;2133635;83;21318;-90
2020/12/29 00:46:40;;;;;;;5.90;4.47;;;;;;;5.30;77.27;96092.72;2133813;83;21285;-91
2020/12/29 00:49:42;;;;;;;5.53;4.30;;;;;;;5.30;77.17;96078.45;2133687;83;21792;-89
2020/12/29 00:52:43;;;;;;;7.78;4.95;;;;;;;5.31;77.23;96094.81;2134139;83;21317;-88
2020/12/29 00:55:45;;;;;;;5.87;4.85;;;;;;;5.27;77.28;96089.73;2133585;83;21718;-89
2020/12/29 00:58:46;;;;;;;9.08;5.58;;;;;;;5.27;77.23;96077.55;2133548;83;21289;-90
2020/12/29 01:01:48;;;;;;;6.90;5.22;;;;;;;5.30;77.21;96086.23;2133532;83;21196;-90
2020/12/29 01:04:49;;;;;;;6.45;5.08;;;;;;;5.31;77.13;96077.44;2133886;83;21634;-89
2020/12/29 01:07:51;;;;;;;6.17;5.12;;;;;;;5.32;77.02;96073.84;2134201;83;21282;-90
2020/12/29 01:10:53;;;;;;;6.42;5.25;;;;;;;5.37;76.91;96065.41;2133520;83;21281;-91
2020/12/29 01:13:54;;;;;;;7.05;5.67;;;;;;;5.39;76.78;96067.28;2133368;83;21591;-90
2020/12/29 01:16:56;;;;;;;6.92;5.83;;;;;;;5.41;76.72;96046.63;2133770;83;21800;-90
2020/12/29 01:19:57;;;;;;;6.67;5.00;;;;;;;5.41;76.67;96047.13;2139008;83;21324;-91
2020/12/29 01:22:59;;;;;;;6.03;4.78;;;;;;;5.44;76.66;96038.91;2143215;83;21146;-90
2020/12/29 01:26:01;;;;;;;6.80;5.58;;;;;;;5.44;76.66;96028.53;2143290;83;21607;-91
2020/12/29 01:29:02;;;;;;;7.25;5.75;;;;;;;5.47;76.63;96041.58;2143211;83;21614;-90
2020/12/29 01:32:04;;;;;;;7.30;5.05;;;;;;;5.45;76.53;96035.81;2143157;83;21182;-90
2020/12/29 01:35:08;;;;;;;7.25;4.37;;;;;;;5.45;76.50;96037.11;2143130;83;21191;-90
2020/12/29 01:38:10;;;;;;;6.62;5.45;;;;;;;5.48;76.29;96022.41;2143495;83;21284;-90
2020/12/29 01:41:12;;;;;;;6.67;5.08;;;;;;;5.49;76.24;96025.31;2143281;83;21720;-90
2020/12/29 01:44:13;;;;;;;5.65;4.60;;;;;;;5.49;76.04;96010.53;2143400;83;21154;-90
2020/12/29 01:47:15;;;;;;;6.17;5.10;;;;;;;5.56;76.19;96015.14;2143144;83;21147;-91
2020/12/29 01:50:16;;;;;;;6.12;4.87;;;;;;;5.62;75.89;96010.91;2143392;83;21297;-90
2020/12/29 01:53:18;;;;;;;6.83;5.85;;;;;;;5.67;75.40;96000.70;2143143;83;21178;-90
2020/12/29 01:56:19;;;;;;;6.15;3.50;;;;;;;5.74;75.61;96008.40;2143210;83;21158;-90
2020/12/29 01:59:21;;;;;;;6.72;4.97;;;;;;;5.77;75.42;95989.81;2143231;83;21154;-90
2020/12/29 02:02:22;;;;;;;8.13;4.95;;;;;;;5.83;75.46;95986.34;2142992;83;21146;-88
2020/12/29 02:05:24;;;;;;;6.10;4.53;;;;;;;5.87;75.05;95992.20;2142870;83;21207;-88
2020/12/29 02:08:26;;;;;;;6.00;4.53;;;;;;;5.89;74.64;95973.30;2143136;83;21182;-90
2020/12/29 02:11:31;;;;;;;5.40;4.72;;;;;;;5.95;74.53;95978.17;2143953;83;21292;-91
2020/12/29 02:14:32;;;;;;;5.42;4.70;;;;;;;5.99;74.38;95972.31;2143433;83;21289;-90
2020/12/29 02:17:34;;;;;;;6.20;5.25;;;;;;;6.04;74.49;95965.69;2143430;83;21226;-90
2020/12/29 02:20:35;;;;;;;5.10;4.10;;;;;;;6.06;74.37;95971.45;2143226;83;21661;-90
2020/12/29 02:23:37;;;;;;;5.15;4.35;;;;;;;6.09;74.44;95967.11;2143612;83;21731;-91
2020/12/29 02:26:38;;;;;;;5.83;5.17;;;;;;;6.13;74.54;95965.69;2143432;83;21135;-90
2020/12/29 02:29:40;;;;;;;5.67;4.37;;;;;;;6.14;73.99;95966.77;2143406;83;21186;-90
2020/12/29 02:32:41;;;;;;;5.33;4.15;;;;;;;6.18;73.92;95954.11;2143509;83;21357;-90
2020/12/29 02:35:43;;;;;;;4.70;4.28;;;;;;;6.21;73.83;95958.86;2143678;83;21182;-90
2020/12/29 02:38:44;;;;;;;5.37;4.47;;;;;;;6.28;73.23;95946.59;2143744;83;21167;-90
2020/12/29 02:41:46;;;;;;;4.92;4.47;;;;;;;6.33;73.12;95947.25;2143403;83;21178;-90
2020/12/29 02:44:47;;;;;;;4.53;4.12;;;;;;;6.36;73.35;95945.50;2143644;83;21186;-89
2020/12/29 02:47:49;;;;;;;4.00;3.70;;;;;;;6.37;73.18;95928.38;2143373;83;21158;-90
2020/12/29 02:50:50;;;;;;;4.92;4.45;;;;;;;6.41;73.04;95920.45;2143412;83;21724;-90
2020/12/29 02:53:52;;;;;;;4.20;3.80;;;;;;;6.46;72.96;95933.55;2143574;83;21190;-90
2020/12/29 02:56:54;;;;;;;6.28;4.90;;;;;;;6.47;72.96;95933.84;2143423;83;21163;-90
2020/12/29 02:59:56;;;;;;;4.42;3.52;;;;;;;6.50;72.68;95937.83;2143480;83;21316;-91
2020/12/29 03:02:57;;;;;;;4.05;3.72;;;;;;;6.50;72.63;95928.22;2143525;83;21186;-90
2020/12/29 03:05:59;;;;;;;5.25;4.15;;;;;;;6.54;72.67;95940.26;2143376;83;21176;-90
2020/12/29 03:09:03;;;;;;;4.37;3.98;;;;;;;6.58;72.63;95931.50;2143478;83;21317;-90
2020/12/29 03:12:05;;;;;;;4.47;3.58;;;;;;;6.61;72.28;95931.87;2143473;83;22147;-90
2020/12/29 03:15:06;;;;;;;4.00;3.50;;;;;;;6.63;72.42;95914.23;2143684;83;21606;-91
2020/12/29 03:18:08;;;;;;;4.08;3.52;;;;;;;6.63;72.18;95927.23;2143400;83;21629;-91
2020/12/29 03:21:09;;;;;;;4.80;4.30;;;;;;;6.67;72.68;95926.27;2135642;83;21658;-90
2020/12/29 03:24:12;;;;;;;4.62;4.22;;;;;;;6.68;72.16;95923.98;2133488;83;21626;-91
2020/12/29 03:27:14;;;;;;;4.67;4.28;;;;;;;6.67;72.59;95897.16;2133439;83;21340;-89
2020/12/29 03:30:15;;;;;;;5.37;3.30;;;;;;;6.66;73.52;95900.77;2133555;83;21218;-88
2020/12/29 03:33:17;;;;;;;4.87;3.72;;;;;;;6.64;74.00;95898.13;2133916;83;21283;-91
2020/12/29 03:36:18;;;;;;;4.72;4.08;;;;;;;6.64;73.42;95903.32;2133854;83;21618;-91
2020/12/29 03:39:20;;;;;;;5.70;3.67;;;;;;;6.62;73.48;95899.65;2133847;83;21166;-91
2020/12/29 03:42:21;;;;;;;5.15;3.35;;;;;;;6.59;73.23;95896.20;2133657;83;21196;-91
2020/12/29 03:45:23;;;;;;;3.62;3.25;;;;;;;6.60;73.20;95888.69;2134013;83;21174;-90
2020/12/29 03:48:25;;;;;;;4.40;4.00;;;;;;;6.61;72.78;95875.97;2133593;83;21309;-90
2020/12/29 03:51:27;;;;;;;4.45;4.05;;;;;;;6.62;72.83;95881.95;2133632;83;21293;-89
2020/12/29 03:54:29;;;;;;;4.45;3.70;;;;;;;6.60;72.78;95895.19;2133940;83;21166;-90
2020/12/29 03:57:30;;;;;;;3.37;3.08;;;;;;;6.59;72.81;95881.91;2133912;83;21196;-90
2020/12/29 04:00:32;;;;;;;3.98;3.50;;;;;;;6.62;72.59;95888.45;2133600;83;21328;-91
2020/12/29 04:03:33;;;;;;;5.22;3.55;;;;;;;6.65;72.40;95890.60;2133860;83;21675;-90
2020/12/29 04:06:35;;;;;;;4.35;3.95;;;;;;;6.66;72.70;95875.28;2133855;83;21150;-91
2020/12/29 04:09:40;;;;;;;3.50;2.95;;;;;;;6.67;72.57;95854.77;2133858;83;21188;-91
2020/12/29 04:12:41;;;;;;;3.33;3.02;;;;;;;6.67;72.67;95859.45;2133768;83;21191;-90
2020/12/29 04:15:43;;;;;;;3.37;3.05;;;;;;;6.70;72.79;95862.14;2133798;83;21175;-91
2020/12/29 04:18:44;;;;;;;3.55;3.25;;;;;;;6.72;72.67;95856.20;2133908;83;21158;-91
2020/12/29 04:21:46;;;;;;;4.62;3.27;;;;;;;6.71;72.72;95846.81;2133663;83;21325;-90
2020/12/29 04:24:47;;;;;;;3.42;3.00;;;;;;;6.70;72.90;95843.94;2133762;83;21215;-90
2020/12/29 04:27:49;;;;;;;2.80;2.60;;;;;;;6.71;72.92;95829.91;2133828;83;21179;-90
2020/12/29 04:30:52;;;;;;;2.90;2.65;;;;;;;6.71;72.90;95833.81;2112476;83;21594;-90
2020/12/29 04:33:54;;;;;;;5.83;3.52;;;;;;;6.72;73.04;95840.59;2133564;83;21202;-91
2020/12/29 04:36:55;;;;;;;2.95;2.60;;;;;;;6.71;73.02;95819.00;2133572;83;21670;-90
2020/12/29 04:39:57;;;;;;;3.22;2.95;;;;;;;6.69;73.09;95823.64;2133990;83;21147;-90
2020/12/29 04:42:58;;;;;;;2.98;2.55;;;;;;;6.71;73.58;95823.41;2133871;83;21166;-90
2020/12/29 04:46:00;;;;;;;3.17;2.58;;;;;;;6.71;73.57;95809.11;2133691;83;21147;-90
2020/12/29 04:49:01;;;;;;;2.67;2.37;;;;;;;6.69;73.77;95801.54;2133738;83;21646;-90
2020/12/29 04:52:03;;;;;;;2.30;2.15;;;;;;;6.67;73.93;95797.05;2133835;83;21163;-90
2020/12/29 04:55:04;;;;;;;2.37;2.25;;;;;;;6.67;74.00;95798.86;2133651;83;21183;-91
2020/12/29 04:58:05;;;;;;;2.52;2.42;;;;;;;6.69;74.21;95796.85;2133792;83;21183;-90
2020/12/29 05:01:07;;;;;;;2.20;2.10;;;;;;;6.69;74.33;95800.24;2133604;83;21171;-91
2020/12/29 05:04:09;;;;;;;2.87;2.67;;;;;;;6.70;74.36;95798.43;2133852;83;21563;-90
2020/12/29 05:07:10;;;;;;;2.08;1.85;;;;;;;6.69;74.59;95787.75;2133532;83;21297;-90
2020/12/29 05:10:12;;;;;;;3.47;2.92;;;;;;;6.70;74.79;95795.32;2133581;83;21329;-90
2020/12/29 05:13:13;;;;;;;3.20;2.42;;;;;;;6.74;75.10;95799.04;2133609;83;21321;-90
2020/12/29 05:16:15;;;;;;;2.87;2.67;;;;;;;6.73;75.21;95803.96;2133701;83;21181;-90
2020/12/29 05:19:16;;;;;;;2.08;1.82;;;;;;;6.74;75.39;95806.05;2133885;83;21158;-90
2020/12/29 05:22:18;;;;;;;2.30;2.15;;;;;;;6.74;75.58;95805.54;2143198;83;21690;-89
2020/12/29 05:25:24;;;;;;;2.83;2.62;;;;;;;6.78;75.92;95805.91;2143237;83;21590;-90
2020/12/29 05:28:24;;;;;;;2.80;2.60;;;;;;;6.78;76.03;95810.59;2142928;83;21219;-91
2020/12/29 05:31:25;;;;;;;2.27;2.12;;;;;;;6.79;76.86;95813.98;2143206;83;21623;-90
2020/12/29 05:34:27;;;;;;;2.33;2.20;;;;;;;6.75;76.92;95809.72;2143258;83;21169;-90
2020/12/29 05:37:28;;;;;;;2.10;2.00;;;;;;;6.71;77.46;95807.30;2143277;83;21174;-90
2020/12/29 05:40:30;;;;;;;2.25;2.15;;;;;;;6.70;77.61;95816.13;2143394;83;21324;-90
2020/12/29 05:43:31;;;;;;;2.25;2.12;;;;;;;6.67;78.22;95808.75;2143355;83;21151;-90
2020/12/29 05:46:33;;;;;;;3.85;1.80;;;;;;;6.63;78.61;95806.84;2143464;83;21745;-91
2020/12/29 05:49:34;;;;;;;1.87;1.77;;;;;;;6.61;78.19;95814.08;2143113;83;21166;-90
2020/12/29 05:52:36;;;;;;;2.37;1.77;;;;;;;6.61;79.17;95811.48;2143066;83;21595;-90
2020/12/29 05:55:38;;;;;;;2.75;2.55;;;;;;;6.59;79.09;95817.42;2143243;83;21210;-90
2020/12/29 05:58:39;;;;;;;1.77;1.67;;;;;;;6.56;79.00;95816.83;2143160;83;21635;-90
2020/12/29 06:01:41;;;;;;;2.55;1.50;;;;;;;6.54;78.92;95818.87;2143088;83;21154;-91
2020/12/29 06:04:42;;;;;;;3.00;2.12;;;;;;;6.56;79.37;95816.03;2143291;83;21149;-90
2020/12/29 06:07:44;;;;;;;2.02;1.90;;;;;;;6.56;79.32;95814.73;2143535;83;21324;-91
2020/12/29 06:10:45;;;;;;;1.85;1.62;;;;;;;6.54;79.75;95808.47;2143329;83;21166;-91
2020/12/29 06:13:47;;;;;;;1.42;1.30;;;;;;;6.53;79.83;95822.99;2143384;83;21146;-90
2020/12/29 06:16:48;;;;;;;1.87;1.45;;;;;;;6.48;80.04;95819.75;2143377;83;21187;-91
2020/12/29 06:19:50;;;;;;;4.80;3.40;;;;;;;6.47;80.18;95825.97;2114392;83;21194;-90
2020/12/29 06:22:52;;;;;;;2.65;1.87;;;;;;;6.45;80.25;95830.60;2143313;83;21162;-91
2020/12/29 06:25:55;;;;;;;2.05;1.92;;;;;;;6.46;80.03;95836.59;2143239;83;21368;-89
2020/12/29 06:28:57;;;;;;;2.42;1.57;;;;;;;6.44;80.51;95831.63;2143950;83;21316;-87
2020/12/29 06:31:58;;;;;;;1.77;1.67;;;;;;;6.45;80.48;95835.80;2143901;83;21174;-88
2020/12/29 06:35:00;;;;;;;3.17;2.00;;;;;;;6.45;80.48;95836.31;2143488;83;21654;-91
2020/12/29 06:38:02;;;;;;;2.00;1.32;;;;;;;6.44;80.76;95847.22;2143550;83;21187;-89
2020/12/29 06:41:03;;;;;;;3.25;2.22;;;;;;;6.40;81.08;95838.30;2143428;83;21677;-90
2020/12/29 06:44:05;;;;;;;2.00;1.90;;;;;;;6.36;80.95;95854.54;2143363;83;21629;-91
2020/12/29 06:47:06;;;;;;;2.12;1.92;;;;;;;6.38;81.02;95861.59;2143429;83;21139;-90
2020/12/29 06:50:08;;;;;;;3.25;2.95;;;;;;;6.38;80.75;95855.89;2144313;83;21169;-88
2020/12/29 06:53:09;;;;;;;4.05;3.62;;;;;;;6.41;80.82;95862.48;2144436;83;21170;-91
2020/12/29 06:56:11;;;;;;;3.72;3.22;;;;;;;6.41;81.23;95871.06;2143791;83;21252;-93
2020/12/29 06:59:14;;;;;;;6.78;5.10;;;;;;;6.39;80.86;95874.37;2143619;83;21642;-91
2020/12/29 07:02:15;;;;;;;3.25;2.95;;;;;;;6.42;81.17;95873.16;2143516;83;21304;-91
2020/12/29 07:05:17;;;;;;;2.02;1.92;;;;;;;6.44;80.90;95881.52;2143435;83;21150;-93
2020/12/29 07:08:19;;;;;;;4.42;2.12;;;;;;;6.45;80.99;95883.89;2143576;83;21135;-96
2020/12/29 07:11:20;;;;;;;2.00;1.70;;;;;;;6.46;81.21;95885.98;2145078;83;21285;-94
2020/12/29 07:14:22;;;;;;;2.65;2.00;;;;;;;6.46;81.12;95905.47;2144241;83;21629;-95
2020/12/29 07:17:25;;;;;;;2.25;1.55;;;;;;;6.45;81.20;95909.88;2114991;83;21965;-96
2020/12/29 07:20:27;;;;;;;4.53;2.58;;;;;;;6.49;81.35;95921.92;2144973;83;21651;-96
2020/12/29 07:23:30;;;;;;;3.42;2.52;;;;;;;6.50;81.34;95923.53;2145258;83;21111;-96
2020/12/29 07:26:33;;;;;;;2.65;2.05;;;;;;;6.52;81.35;95936.58;2144490;83;21296;-96
2020/12/29 07:29:35;;;;;;;2.67;2.10;;;;;;;6.52;81.56;95952.69;2144692;83;21158;-93
2020/12/29 07:32:36;;;;;;;3.25;1.50;;;;;;;6.50;81.57;95960.72;2145622;83;21301;-91
2020/12/29 07:35:38;;;;;;;1.90;1.80;;;;;;;6.53;81.79;95974.56;2146121;83;21333;-92
2020/12/29 07:38:39;;;;;;;2.17;1.98;;;;;;;6.53;81.65;95989.37;2144162;83;21646;-93
2020/12/29 07:41:41;;;;;;;2.08;1.90;;;;;;;6.51;81.75;95997.90;2144067;83;21725;-96
2020/12/29 07:44:42;;;;;;;2.77;2.20;;;;;;;6.47;81.62;96007.92;2144121;83;21146;-95
2020/12/29 07:47:44;;;;;;;3.35;2.50;;;;;;;6.42;81.75;96024.70;2144535;83;21352;-95
2020/12/29 07:50:46;;;;;;;4.25;2.45;;;;;;;6.42;81.62;96033.00;2144725;83;21293;-94
2020/12/29 07:53:47;;;;;;;5.97;2.80;;;;;;;6.39;81.48;96041.22;2144180;83;21198;-91
2020/12/29 07:56:49;;;;;;;6.67;3.60;;;;;;;6.35;81.60;96046.57;2144310;83;21206;-93
2020/12/29 07:59:52;;;;;;;7.15;4.37;;;;;;;6.25;81.38;96066.06;2145160;83;21297;-96
2020/12/29 08:02:54;;;;;;;5.22;3.60;;;;;;;6.22;81.72;96064.41;2117549;83;21756;-93
2020/12/29 08:05:55;;;;;;;40.15;17.77;;;;;;;6.17;81.26;96079.84;2143593;83;21332;-94
2020/12/29 08:08:57;;;;;;;22.48;7.92;;;;;;;6.07;81.12;96089.94;2143699;83;22367;-93
2020/12/29 08:11:58;;;;;;;16.95;6.20;;;;;;;5.95;80.93;96107.53;2143609;83;21166;-94
2020/12/29 08:15:00;;;;;;;8.58;3.58;;;;;;;5.82;81.24;96111.48;2143809;83;21721;-92
2020/12/29 08:18:01;;;;;;;6.00;2.87;;;;;;;5.65;81.23;96124.20;2143740;83;21173;-93
2020/12/29 08:21:03;;;;;;;7.30;2.90;;;;;;;5.55;81.31;96136.06;2144052;83;21280;-94
2020/12/29 08:24:05;;;;;;;8.10;3.55;;;;;;;5.41;81.62;96154.33;2144245;83;21713;-92
2020/12/29 08:27:06;;;;;;;6.33;3.20;;;;;;;5.30;81.46;96164.55;2144028;83;21304;-94
2020/12/29 08:30:08;;;;;;;5.25;3.37;;;;;;;5.21;81.59;96170.98;2144702;83;21309;-91
2020/12/29 08:33:09;;;;;;;15.03;6.53;;;;;;;5.12;81.43;96186.81;2144794;83;21337;-92
2020/12/29 08:36:11;;;;;;;72.30;32.23;;;;;;;5.08;81.81;96187.41;2144158;83;21309;-92
2020/12/29 08:39:12;;;;;;;27.55;9.25;;;;;;;5.05;81.62;96207.28;2143928;83;21300;-95
2020/12/29 08:42:14;;;;;;;12.78;4.95;;;;;;;4.99;81.81;96203.70;2144796;83;21314;-91
2020/12/29 08:45:15;;;;;;;10.53;4.53;;;;;;;4.99;81.85;96215.38;2145859;83;21325;-94
2020/12/29 08:48:17;;;;;;;14.90;6.75;;;;;;;5.00;82.00;96215.66;2146332;81;21186;-96
2020/12/29 08:51:19;;;;;;;7.50;4.75;;;;;;;5.01;82.06;96225.54;2145897;83;21498;-94
2020/12/29 08:54:24;;;;;;;9.43;4.83;;;;;;;5.01;81.89;96233.32;2146310;83;21214;-92
2020/12/29 08:57:25;;;;;;;12.43;7.45;;;;;;;5.01;83.56;96227.63;2146145;83;21277;-96
2020/12/29 09:00:27;;;;;;;10.28;7.20;;;;;;;5.11;82.29;96237.07;2145758;83;21272;-92
2020/12/29 09:03:28;;;;;;;8.30;6.45;;;;;;;5.17;82.14;96241.95;2145846;83;21297;-95
2020/12/29 09:06:30;;;;;;;38.20;20.97;;;;;;;5.24;81.77;96254.91;2144536;83;21312;-95
2020/12/29 09:09:32;;;;;;;21.62;10.95;;;;;;;5.26;81.94;96274.45;2144145;83;21337;-95
2020/12/29 09:12:33;;;;;;;10.00;6.42;;;;;;;5.26;81.67;96291.31;2144213;83;21305;-93
2020/12/29 09:15:35;;;;;;;17.65;10.03;;;;;;;5.23;81.88;96303.41;2144071;83;21324;-94
2020/12/29 09:18:38;;;;;;;26.00;13.75;;;;;;;5.28;81.79;96309.27;2144687;83;21320;-94
2020/12/29 09:21:39;;;;;;;15.03;9.80;;;;;;;5.31;81.46;96323.15;2139694;83;21320;-95
2020/12/29 09:24:41;;;;;;;13.00;9.48;;;;;;;5.33;81.36;96314.16;2134185;83;21163;-90
2020/12/29 09:27:42;;;;;;;14.43;11.25;;;;;;;5.40;81.23;96320.13;2133992;83;21279;-89
2020/12/29 09:30:44;;;;;;;12.30;10.15;;;;;;;5.47;80.98;96323.97;2134411;83;21296;-92
2020/12/29 09:33:45;;;;;;;10.13;8.58;;;;;;;5.56;80.69;96337.02;2133753;83;21643;-91
2020/12/29 09:36:49;;;;;;;16.93;11.93;;;;;;;5.68;80.72;96339.80;2133893;83;21191;-94
2020/12/29 09:39:53;;;;;;;21.70;11.70;;;;;;;5.74;80.26;96349.34;2134245;83;21170;-94
2020/12/29 09:42:55;;;;;;;15.00;9.50;;;;;;;5.73;80.20;96360.73;2134370;83;21305;-93
2020/12/29 09:45:57;;;;;;;12.65;9.05;;;;;;;5.74;79.82;96364.12;2134227;83;21313;-92
2020/12/29 09:48:59;;;;;;;14.80;9.13;;;;;;;5.75;79.81;96378.19;2134744;83;21203;-90
2020/12/29 09:52:01;;;;;;;14.43;9.93;;;;;;;5.77;79.84;96380.11;2134624;83;21154;-94
2020/12/29 09:55:03;;;;;;;14.13;10.70;;;;;;;5.79;79.89;96391.08;2133922;83;21175;-93
2020/12/29 09:58:04;;;;;;;12.18;9.40;;;;;;;5.80;79.62;96396.56;2133601;83;21321;-93
2020/12/29 10:01:06;;;;;;;15.18;11.15;;;;;;;5.83;79.57;96403.14;2133906;83;21333;-93
2020/12/29 10:04:07;;;;;;;13.32;9.93;;;;;;;5.90;79.64;96422.09;2134068;83;21198;-93
2020/12/29 10:07:09;;;;;;;13.78;11.18;;;;;;;5.94;78.90;96424.59;2133455;83;21610;-92
2020/12/29 10:10:10;;;;;;;29.37;16.27;;;;;;;5.96;78.80;96435.61;2133792;83;21157;-94
2020/12/29 10:13:12;;;;;;;17.73;10.68;;;;;;;5.97;78.59;96435.90;2133816;83;21328;-93
2020/12/29 10:16:13;;;;;;;14.58;10.43;;;;;;;5.96;77.78;96451.98;2133936;83;21321;-94
2020/12/29 10:19:15;;;;;;;15.98;10.78;;;;;;;6.00;77.71;96465.35;2133776;83;21611;-94
2020/12/29 10:22:16;;;;;;;11.48;8.98;;;;;;;6.01;77.30;96466.94;2134004;83;21309;-93
2020/12/29 10:25:18;;;;;;;12.23;9.08;;;;;;;6.03;77.73;96480.52;2134148;83;21231;-93
2020/12/29 10:28:20;;;;;;;12.90;8.90;;;;;;;5.99;76.83;96481.44;2133974;83;21191;-93
2020/12/29 10:31:21;;;;;;;13.93;8.95;;;;;;;5.99;77.27;96497.53;2133776;83;21175;-94
2020/12/29 10:34:25;;;;;;;14.25;9.00;;;;;;;5.97;76.79;96509.43;2134159;83;21292;-93
2020/12/29 10:37:26;;;;;;;10.45;8.00;;;;;;;6.01;77.08;96510.31;2133725;83;21741;-94
2020/12/29 10:40:28;;;;;;;18.92;12.20;;;;;;;6.02;75.86;96515.30;2133764;83;21329;-94
2020/12/29 10:43:29;;;;;;;17.37;9.45;;;;;;;6.06;76.53;96526.09;2133825;83;21324;-93
2020/12/29 10:46:31;;;;;;;14.03;8.30;;;;;;;6.10;76.55;96526.77;2133748;83;21119;-93
2020/12/29 10:49:32;;;;;;;11.55;7.20;;;;;;;6.09;75.36;96537.38;2133851;83;21293;-93
2020/12/29 10:52:34;;;;;;;11.10;7.28;;;;;;;6.09;74.90;96544.66;2133981;83;21199;-95
2020/12/29 10:55:35;;;;;;;11.43;7.50;;;;;;;6.13;75.28;96539.88;2134046;83;21753;-94
2020/12/29 10:58:37;;;;;;;10.15;7.75;;;;;;;6.16;74.56;96536.36;2134641;83;21187;-93
2020/12/29 11:01:39;;;;;;;10.78;6.47;;;;;;;6.18;74.77;96539.55;2134509;83;21329;-94
2020/12/29 11:04:41;;;;;;;9.15;7.15;;;;;;;6.20;74.23;96551.03;2133558;83;21147;-94
2020/12/29 11:07:44;;;;;;;31.45;20.20;;;;;;;6.19;73.66;96548.14;2133568;83;21155;-94
2020/12/29 11:10:46;;;;;;;22.25;12.03;;;;;;;6.19;73.81;96565.83;2133674;83;21316;-93
2020/12/29 11:13:47;;;;;;;14.33;8.75;;;;;;;6.19;73.08;96579.32;2134247;83;21155;-94
2020/12/29 11:16:49;;;;;;;13.45;7.72;;;;;;;6.21;73.79;96595.50;2134117;83;21202;-94
2020/12/29 11:19:51;;;;;;;11.70;7.67;;;;;;;6.23;73.50;96594.82;2134013;83;21192;-94
2020/12/29 11:22:52;;;;;;;13.38;7.62;;;;;;;6.25;72.87;96604.50;2133737;83;21316;-94
2020/12/29 11:25:54;;;;;;;13.83;9.50;;;;;;;6.26;73.80;96618.59;2133946;83;21154;-94
2020/12/29 11:28:55;;;;;;;11.35;7.20;;;;;;;6.26;72.92;96621.19;2133788;83;21337;-94
2020/12/29 11:31:57;;;;;;;10.68;5.65;;;;;;;6.27;72.74;96619.39;2133753;83;21316;-94
2020/12/29 11:35:01;;;;;;;12.37;6.05;;;;;;;6.26;72.11;96632.89;2133401;83;21349;-93
2020/12/29 11:38:03;;;;;;;7.80;5.20;;;;;;;6.25;71.40;96639.59;2133190;83;21920;-93
2020/12/29 11:41:05;;;;;;;18.92;9.68;;;;;;;6.27;71.63;96638.88;2133519;83;21124;-94
2020/12/29 11:44:09;;;;;;;10.38;6.10;;;;;;;6.28;71.30;96637.38;2133475;83;21713;-94
2020/12/29 11:47:11;;;;;;;9.33;5.12;;;;;;;6.31;70.87;96648.36;2133085;83;21163;-94
2020/12/29 11:50:15;;;;;;;6.58;5.08;;;;;;;6.31;71.18;96660.89;2133626;83;21321;-93
2020/12/29 11:53:17;;;;;;;11.05;6.10;;;;;;;6.30;71.17;96675.36;2134115;83;21717;-93
2020/12/29 11:56:18;;;;;;;9.73;6.58;;;;;;;6.30;70.58;96678.75;2133984;83;21198;-94
2020/12/29 11:59:30;;;;;;;;;;;;;;;;;;;;;
2020/12/29 12:02:57;;;;;;;7.20;5.20;;;;;;;6.39;70.29;96685.34;2226722;79;28305;-93
2020/12/29 12:05:58;;;;;;;4.70;3.25;;;;;;;6.40;70.11;96683.54;2200964;81;21628;-93
2020/12/29 12:09:00;;;;;;;6.72;4.35;;;;;;;6.45;69.46;96690.25;2201126;81;21296;-94
2020/12/29 12:12:02;;;;;;;6.97;4.25;;;;;;;6.48;69.49;96713.23;2201081;81;21609;-93
2020/12/29 12:15:03;;;;;;;24.32;13.32;;;;;;;6.49;69.79;96714.83;2168394;81;21177;-94
2020/12/29 12:18:05;;;;;;;8.35;5.42;;;;;;;6.50;68.75;96719.84;2201246;81;21150;-94
2020/12/29 12:21:06;;;;;;;7.53;4.67;;;;;;;6.53;67.53;96712.94;2201012;81;21154;-94
2020/12/29 12:24:13;;;;;;;8.58;4.45;;;;;;;6.58;67.86;96725.81;2201126;81;21712;-93
2020/12/29 12:27:22;;;;;;;6.35;4.28;;;;;;;6.58;67.93;96724.02;2201081;81;21269;-94
2020/12/29 12:30:24;;;;;;;5.08;3.50;;;;;;;6.58;66.92;96727.91;2200782;81;21169;-93
2020/12/29 12:33:27;;;;;;;4.58;3.30;;;;;;;6.58;67.49;96738.31;2200837;81;21145;-94
2020/12/29 12:36:29;;;;;;;4.05;3.08;;;;;;;6.59;67.03;96738.64;2202308;81;21269;-91
2020/12/29 12:39:36;;;;;;;4.83;3.00;;;;;;;6.59;66.45;96733.95;2201994;81;21263;-94
2020/12/29 12:42:37;;;;;;;18.67;9.35;;;;;;;6.61;67.03;96730.13;2201145;81;21336;-93
2020/12/29 12:45:39;;;;;;;11.63;6.00;;;;;;;6.59;67.02;96742.55;2200972;81;21166;-93
2020/12/29 12:48:41;;;;;;;5.85;3.65;;;;;;;6.61;66.06;96752.73;2200897;81;21153;-93
2020/12/29 12:51:42;;;;;;;7.15;3.75;;;;;;;6.60;65.45;96757.14;2201003;81;21157;-93
2020/12/29 12:54:44;;;;;;;4.10;2.83;;;;;;;6.60;65.81;96759.74;2200935;81;21586;-94
2020/12/29 12:57:45;;;;;;;5.67;3.47;;;;;;;6.59;65.32;96765.95;2201138;81;21208;-92
2020/12/29 13:00:47;;;;;;;6.62;3.50;;;;;;;6.61;65.74;96765.74;2199858;80;21284;-92
2020/12/29 13:03:49;;;;;;;8.60;3.90;;;;;;;6.61;65.66;96787.84;2163768;81;21554;-94
2020/12/29 13:06:51;;;;;;;16.20;8.35;;;;;;;6.59;65.30;96783.35;2190389;81;21272;-94
2020/12/29 13:09:53;;;;;;;17.30;8.13;;;;;;;6.58;65.71;96794.23;2190889;81;21150;-94
2020/12/29 13:12:54;;;;;;;9.85;5.05;;;;;;;6.56;65.16;96809.23;2189987;81;21296;-94
2020/12/29 13:15:56;;;;;;;4.10;3.22;;;;;;;6.55;65.39;96821.94;2189846;81;21174;-94
2020/12/29 13:18:59;;;;;;;6.35;3.50;;;;;;;6.54;65.69;96830.73;2162466;81;21182;-94
2020/12/29 13:22:00;;;;;;;7.92;4.40;;;;;;;6.52;66.07;96836.64;2190140;81;21179;-93
2020/12/29 13:25:02;;;;;;;8.93;3.95;;;;;;;6.51;65.71;96832.45;2189883;81;21320;-93
2020/12/29 13:28:03;;;;;;;12.58;4.90;;;;;;;6.48;65.88;96841.42;2189582;81;21426;-93
2020/12/29 13:31:05;;;;;;;6.90;3.75;;;;;;;6.46;65.30;96864.23;2189898;81;21162;-93
2020/12/29 13:34:12;;;;;;;6.78;2.98;;;;;;;6.44;65.58;96864.94;2189899;81;21304;-95
2020/12/29 13:37:16;;;;;;;4.85;2.70;;;;;;;6.42;65.37;96866.14;2189802;81;21260;-94
2020/12/29 13:40:18;;;;;;;3.83;2.90;;;;;;;6.40;65.33;96889.73;2190355;81;21312;-93
2020/12/29 13:43:20;;;;;;;4.20;3.02;;;;;;;6.37;65.03;96895.81;2189396;81;21779;-94
2020/12/29 13:46:21;;;;;;;4.47;3.20;;;;;;;6.34;64.83;96897.02;2189414;81;21321;-93
2020/12/29 13:49:23;;;;;;;7.00;3.27;;;;;;;6.31;65.36;96903.91;2189857;81;21155;-93
2020/12/29 13:52:25;;;;;;;3.83;2.52;;;;;;;6.30;65.58;96913.19;2189699;81;21295;-93
2020/12/29 13:55:28;;;;;;;4.95;3.08;;;;;;;6.26;65.36;96917.98;2189601;81;21308;-93
2020/12/29 13:58:30;;;;;;;3.95;2.42;;;;;;;6.19;65.47;96932.25;2189723;81;21159;-93
2020/12/29 14:01:31;;;;;;;5.17;2.62;;;;;;;6.17;65.60;96934.25;2189927;81;21297;-92
2020/12/29 14:04:35;;;;;;;5.65;2.00;;;;;;;6.12;65.89;96940.52;2162278;81;21610;-92
2020/12/29 14:07:37;;;;;;;5.35;2.33;;;;;;;6.07;65.90;96948.60;2189697;81;21154;-92
2020/12/29 14:10:38;;;;;;;3.75;2.40;;;;;;;5.99;65.83;96959.45;2189883;81;21315;-93
2020/12/29 14:13:40;;;;;;;4.22;2.65;;;;;;;5.93;65.92;96962.02;2189634;81;21173;-94
2020/12/29 14:16:42;;;;;;;3.15;2.15;;;;;;;5.87;66.10;96962.77;2152376;83;21170;-93
2020/12/29 14:19:44;;;;;;;2.15;1.67;;;;;;;5.79;66.29;96983.20;2152493;83;21320;-93
2020/12/29 14:22:46;;;;;;;4.00;2.52;;;;;;;5.70;66.26;96996.84;2152244;83;21222;-93
2020/12/29 14:25:47;;;;;;;5.80;2.58;;;;;;;5.60;66.44;97002.86;2151953;83;21149;-93